Time;durP1;ratioP1;P1;durP2;ratioP2;P2;SDS_P1;SDS_P2;PMS_P1;PMS_P2;Temp;Humidity;BMP_temperature;BMP_pressure;BME280_temperature;BME280_humidity;BME280_pressure;Samples;Min_cycle;Max_cycle;Signal;HPM_P1;HPM_P2
2022/03/06 00:02:06;;;;;;;11.88;10.20;;;;;;;;;;4978654;28;20031;-86
2022/03/06 00:04:33;;;;;;;12.02;9.45;;;;;;;;;;4995092;28;20116;-85
2022/03/06 00:06:58;;;;;;;13.30;9.82;;;;;;;;;;4962737;28;20069;-85
2022/03/06 00:09:25;;;;;;;11.25;9.52;;;;;;;;;;4995189;28;20073;-85
2022/03/06 00:11:52;;;;;;;11.02;9.63;;;;;;;;;;4962853;28;20065;-85
2022/03/06 00:14:17;;;;;;;12.65;9.90;;;;;;;;;;4967903;28;20045;-85
2022/03/06 00:16:44;;;;;;;12.88;9.68;;;;;;;;;;4981446;28;20030;-84
2022/03/06 00:19:09;;;;;;;11.27;8.98;;;;;;;;;;4998717;28;20492;-85
2022/03/06 00:21:38;;;;;;;12.73;9.50;;;;;;;;;;4981698;28;20058;-85
2022/03/06 00:24:05;;;;;;;12.00;9.77;;;;;;;;;;4981966;28;20034;-84
2022/03/06 00:26:32;;;;;;;11.30;9.68;;;;;;;;;;5014681;28;20057;-85
2022/03/06 00:28:58;;;;;;;10.30;8.40;;;;;;;;;;4998104;28;20040;-84
2022/03/06 00:31:25;;;;;;;10.90;8.55;;;;;;;;;;4981613;28;20124;-85
2022/03/06 00:33:51;;;;;;;12.82;9.38;;;;;;;;;;4997810;28;20040;-85
2022/03/06 00:36:17;;;;;;;11.68;9.00;;;;;;;;;;4997627;28;20069;-86
2022/03/06 00:38:44;;;;;;;10.85;9.15;;;;;;;;;;4981741;28;20127;-84
2022/03/06 00:41:12;;;;;;;11.27;8.55;;;;;;;;;;4981485;28;20507;-85
2022/03/06 00:43:38;;;;;;;9.85;8.57;;;;;;;;;;4982623;28;20061;-86
2022/03/06 00:46:04;;;;;;;11.13;9.38;;;;;;;;;;4997706;28;20038;-85
2022/03/06 00:48:30;;;;;;;9.50;8.45;;;;;;;;;;4997892;28;20022;-84
2022/03/06 00:50:55;;;;;;;10.43;8.43;;;;;;;;;;4997784;28;20408;-85
2022/03/06 00:53:22;;;;;;;13.15;9.77;;;;;;;;;;4997875;28;20033;-87
2022/03/06 00:55:49;;;;;;;10.70;8.38;;;;;;;;;;4997130;28;20057;-87
2022/03/06 00:58:15;;;;;;;12.18;9.40;;;;;;;;;;4995500;28;20451;-87
2022/03/06 01:00:43;;;;;;;10.50;8.55;;;;;;;;;;4994463;28;20043;-87
2022/03/06 01:03:10;;;;;;;11.73;9.27;;;;;;;;;;4993774;28;20029;-86
2022/03/06 01:05:36;;;;;;;9.85;8.35;;;;;;;;;;5010205;28;20035;-87
2022/03/06 01:08:03;;;;;;;10.57;7.95;;;;;;;;;;4994030;28;20041;-87
2022/03/06 01:10:30;;;;;;;11.43;8.60;;;;;;;;;;4994153;28;20030;-86
2022/03/06 01:12:56;;;;;;;10.20;8.65;;;;;;;;;;5010025;28;20030;-87
2022/03/06 01:15:22;;;;;;;10.15;8.48;;;;;;;;;;5007629;28;20072;-87
2022/03/06 01:17:50;;;;;;;10.07;8.45;;;;;;;;;;4981046;28;20117;-87
2022/03/06 01:20:17;;;;;;;9.32;7.47;;;;;;;;;;4997351;28;20042;-87
2022/03/06 01:22:44;;;;;;;11.15;8.65;;;;;;;;;;4997365;28;20033;-87
2022/03/06 01:25:11;;;;;;;11.27;9.13;;;;;;;;;;4997162;28;20472;-88
2022/03/06 01:27:38;;;;;;;11.27;9.13;;;;;;;;;;4996629;28;20030;-87
2022/03/06 01:30:05;;;;;;;10.15;8.30;;;;;;;;;;4980828;28;20157;-88
2022/03/06 01:32:32;;;;;;;9.93;8.40;;;;;;;;;;4997763;28;20069;-87
2022/03/06 01:34:58;;;;;;;11.07;8.70;;;;;;;;;;4992950;28;20042;-87
2022/03/06 01:37:24;;;;;;;10.40;8.32;;;;;;;;;;4961184;28;20034;-86
2022/03/06 01:39:52;;;;;;;10.77;8.40;;;;;;;;;;4977314;28;20034;-87
2022/03/06 01:42:17;;;;;;;10.60;8.15;;;;;;;;;;4960724;28;20468;-87
2022/03/06 01:44:48;;;;;;;10.77;8.82;;;;;;;;;;4977377;28;20156;-86
2022/03/06 01:47:32;;;;;;;10.18;8.23;;;;;;;;;;4977694;28;20077;-87
2022/03/06 01:49:58;;;;;;;10.30;7.80;;;;;;;;;;4993846;28;20045;-87
2022/03/06 01:52:24;;;;;;;11.05;8.80;;;;;;;;;;4977162;28;20105;-86
2022/03/06 01:54:50;;;;;;;9.63;8.20;;;;;;;;;;4977039;28;20038;-87
2022/03/06 01:57:17;;;;;;;10.73;8.35;;;;;;;;;;4985488;28;20511;-87
2022/03/06 01:59:44;;;;;;;10.93;8.40;;;;;;;;;;4993102;28;20053;-86
2022/03/06 02:02:09;;;;;;;10.40;8.20;;;;;;;;;;4976890;28;20117;-87
2022/03/06 02:04:41;;;;;;;9.98;8.15;;;;;;;;;;4960660;28;20053;-86
2022/03/06 02:07:06;;;;;;;8.77;7.88;;;;;;;;;;4993191;28;20038;-87
2022/03/06 02:09:33;;;;;;;9.82;7.80;;;;;;;;;;4993163;28;20042;-87
2022/03/06 02:14:43;;;;;;;9.40;7.88;;;;;;;;;;4995202;28;20062;-88
2022/03/06 02:17:11;;;;;;;9.02;7.95;;;;;;;;;;4960169;28;20045;-87
2022/03/06 02:19:51;;;;;;;9.95;8.32;;;;;;;;;;4979778;28;20041;-86
2022/03/06 02:22:22;;;;;;;10.30;8.60;;;;;;;;;;5028616;28;20381;-87
2022/03/06 02:24:49;;;;;;;8.90;7.55;;;;;;;;;;4980055;28;20484;-87
2022/03/06 02:27:14;;;;;;;8.90;7.72;;;;;;;;;;5011717;28;20034;-87
2022/03/06 02:29:41;;;;;;;9.77;7.95;;;;;;;;;;4979615;28;20034;-87
2022/03/06 02:32:08;;;;;;;9.85;8.05;;;;;;;;;;4995437;28;20033;-87
2022/03/06 02:34:37;;;;;;;9.38;7.45;;;;;;;;;;4993039;28;20121;-87
2022/03/06 02:37:03;;;;;;;9.13;7.57;;;;;;;;;;4995706;28;20045;-85
2022/03/06 02:39:29;;;;;;;9.00;7.72;;;;;;;;;;4995888;28;20034;-87
2022/03/06 02:41:57;;;;;;;9.18;7.40;;;;;;;;;;4991253;28;20037;-87
2022/03/06 02:44:24;;;;;;;9.43;8.43;;;;;;;;;;4992037;28;20484;-87
2022/03/06 02:46:50;;;;;;;9.55;7.55;;;;;;;;;;4975981;28;20496;-87
2022/03/06 02:49:17;;;;;;;9.43;8.38;;;;;;;;;;5008734;28;20035;-86
2022/03/06 02:51:45;;;;;;;9.70;7.57;;;;;;;;;;4960115;28;20042;-87
2022/03/06 02:54:12;;;;;;;9.55;7.65;;;;;;;;;;4960291;28;20042;-87
2022/03/06 02:56:38;;;;;;;9.80;7.00;;;;;;;;;;4960007;28;20034;-87
2022/03/06 02:59:05;;;;;;;9.15;7.45;;;;;;;;;;4968367;28;20030;-87
2022/03/06 03:01:31;;;;;;;9.07;7.65;;;;;;;;;;5011731;28;20037;-87
2022/03/06 03:03:56;;;;;;;9.88;7.38;;;;;;;;;;4995163;28;20116;-87
2022/03/06 03:06:23;;;;;;;8.27;7.38;;;;;;;;;;4994853;28;20034;-87
2022/03/06 03:08:49;;;;;;;8.93;7.00;;;;;;;;;;4978694;28;20046;-87
2022/03/06 03:11:16;;;;;;;9.48;8.43;;;;;;;;;;4978910;28;20053;-87
2022/03/06 03:13:42;;;;;;;8.77;7.22;;;;;;;;;;4994793;28;20040;-85
2022/03/06 03:16:09;;;;;;;8.30;7.45;;;;;;;;;;5011254;28;20048;-87
2022/03/06 03:18:34;;;;;;;9.13;7.50;;;;;;;;;;5011464;28;20053;-87
2022/03/06 03:21:01;;;;;;;8.98;8.07;;;;;;;;;;4995043;28;20038;-87
2022/03/06 03:23:27;;;;;;;7.57;6.40;;;;;;;;;;5010979;28;20038;-87
2022/03/06 03:25:54;;;;;;;8.52;7.38;;;;;;;;;;4986749;28;20041;-87
2022/03/06 03:28:20;;;;;;;8.77;7.15;;;;;;;;;;4995031;28;20037;-87
2022/03/06 03:30:46;;;;;;;8.88;7.28;;;;;;;;;;4978435;28;20034;-86
2022/03/06 03:33:11;;;;;;;10.07;7.13;;;;;;;;;;4994835;28;20026;-87
2022/03/06 03:35:37;;;;;;;8.07;7.00;;;;;;;;;;4975423;28;20037;-87
2022/03/06 03:38:04;;;;;;;9.20;8.07;;;;;;;;;;4991032;28;20421;-87
2022/03/06 03:40:31;;;;;;;8.65;7.38;;;;;;;;;;4959635;28;20034;-87
2022/03/06 03:42:58;;;;;;;8.82;7.03;;;;;;;;;;4975338;28;20038;-87
2022/03/06 03:45:23;;;;;;;8.32;7.10;;;;;;;;;;4991128;28;20035;-87
2022/03/06 03:47:49;;;;;;;10.30;7.60;;;;;;;;;;4991613;28;20137;-86
2022/03/06 03:50:16;;;;;;;9.70;7.60;;;;;;;;;;4994293;28;20038;-87
2022/03/06 03:52:43;;;;;;;8.63;7.43;;;;;;;;;;5010690;28;20038;-87
2022/03/06 03:55:08;;;;;;;9.50;8.15;;;;;;;;;;4987912;28;20034;-87
2022/03/06 03:57:34;;;;;;;9.63;7.22;;;;;;;;;;4991449;28;20077;-86
2022/03/06 03:59:59;;;;;;;8.13;7.32;;;;;;;;;;4991307;28;20057;-87
2022/03/06 04:02:26;;;;;;;9.23;7.05;;;;;;;;;;5010788;28;20042;-86
2022/03/06 04:04:51;;;;;;;8.88;7.70;;;;;;;;;;4994476;28;20121;-87
2022/03/06 04:07:18;;;;;;;8.82;7.30;;;;;;;;;;4990784;28;20104;-87
2022/03/06 04:09:43;;;;;;;8.50;7.13;;;;;;;;;;4990733;28;20489;-85
2022/03/06 04:12:09;;;;;;;9.35;7.60;;;;;;;;;;4991148;28;20076;-87
2022/03/06 04:14:34;;;;;;;8.32;7.40;;;;;;;;;;4958838;28;20412;-86
2022/03/06 04:17:01;;;;;;;8.85;7.80;;;;;;;;;;4990544;28;20047;-87
2022/03/06 04:19:27;;;;;;;7.47;6.70;;;;;;;;;;4988725;28;20040;-87
2022/03/06 04:21:53;;;;;;;8.88;7.50;;;;;;;;;;4977632;28;20030;-86
2022/03/06 04:24:19;;;;;;;8.35;7.30;;;;;;;;;;4978453;28;20463;-86
2022/03/06 04:26:46;;;;;;;8.85;6.90;;;;;;;;;;4994164;28;20049;-86
2022/03/06 04:29:11;;;;;;;9.35;7.25;;;;;;;;;;4994353;28;20084;-86
2022/03/06 04:31:38;;;;;;;8.05;7.25;;;;;;;;;;4978043;28;20038;-86
2022/03/06 04:34:03;;;;;;;8.20;7.15;;;;;;;;;;4979582;28;20030;-85
2022/03/06 04:36:29;;;;;;;7.72;6.55;;;;;;;;;;4997850;28;20049;-87
2022/03/06 04:38:54;;;;;;;8.50;6.88;;;;;;;;;;4997984;28;20041;-86
2022/03/06 04:41:20;;;;;;;9.65;7.57;;;;;;;;;;4981313;28;20042;-85
2022/03/06 04:43:47;;;;;;;9.30;7.43;;;;;;;;;;4978056;28;20035;-87
2022/03/06 04:46:14;;;;;;;8.02;7.18;;;;;;;;;;4961873;28;20034;-87
2022/03/06 04:48:40;;;;;;;7.63;6.55;;;;;;;;;;4961974;28;20089;-86
2022/03/06 04:51:06;;;;;;;9.20;7.85;;;;;;;;;;4945680;28;20034;-87
2022/03/06 04:53:34;;;;;;;9.55;7.53;;;;;;;;;;4961802;28;20026;-86
2022/03/06 04:56:01;;;;;;;7.88;7.07;;;;;;;;;;4945657;28;20045;-87
2022/03/06 04:58:29;;;;;;;8.30;7.32;;;;;;;;;;4992291;28;20559;-87
2022/03/06 05:00:55;;;;;;;8.98;7.13;;;;;;;;;;4978155;28;20044;-87
2022/03/06 05:03:20;;;;;;;8.60;7.03;;;;;;;;;;4977620;28;20060;-86
2022/03/06 05:05:49;;;;;;;8.52;7.00;;;;;;;;;;4977547;28;20049;-87
2022/03/06 05:08:14;;;;;;;8.95;7.70;;;;;;;;;;4993860;28;20026;-87
2022/03/06 05:10:40;;;;;;;8.23;7.00;;;;;;;;;;4993591;28;20049;-87
2022/03/06 05:13:05;;;;;;;8.50;6.80;;;;;;;;;;4979557;28;20117;-86
2022/03/06 05:15:32;;;;;;;7.65;6.68;;;;;;;;;;5029827;28;20121;-87
2022/03/06 05:17:59;;;;;;;8.43;6.80;;;;;;;;;;4997063;28;20079;-86
2022/03/06 05:20:25;;;;;;;9.05;6.68;;;;;;;;;;4997062;28;20073;-87
2022/03/06 05:22:52;;;;;;;8.52;6.82;;;;;;;;;;4980823;28;20060;-86
2022/03/06 05:25:18;;;;;;;8.50;6.75;;;;;;;;;;4997039;28;20037;-86
2022/03/06 05:27:45;;;;;;;8.68;6.88;;;;;;;;;;4997013;28;20045;-87
2022/03/06 05:30:12;;;;;;;9.60;6.97;;;;;;;;;;4996822;28;20513;-87
2022/03/06 05:32:39;;;;;;;9.13;7.43;;;;;;;;;;4981162;28;20034;-87
2022/03/06 05:35:05;;;;;;;9.65;6.97;;;;;;;;;;4996481;28;20049;-86
2022/03/06 05:37:30;;;;;;;8.30;6.72;;;;;;;;;;4996938;28;20030;-86
2022/03/06 05:39:57;;;;;;;8.00;7.05;;;;;;;;;;4996673;28;20049;-87
2022/03/06 05:42:22;;;;;;;8.82;6.90;;;;;;;;;;4993299;28;20041;-86
2022/03/06 05:44:47;;;;;;;7.70;6.38;;;;;;;;;;4992554;28;20038;-86
2022/03/06 05:47:13;;;;;;;7.65;6.85;;;;;;;;;;4976649;28;20097;-87
2022/03/06 05:49:38;;;;;;;7.68;6.47;;;;;;;;;;4961071;28;20069;-86
2022/03/06 05:52:05;;;;;;;8.13;6.82;;;;;;;;;;5009257;28;20077;-86
2022/03/06 05:54:30;;;;;;;8.48;6.45;;;;;;;;;;4976883;28;20134;-86
2022/03/06 05:56:56;;;;;;;8.68;7.05;;;;;;;;;;4992954;28;20117;-86
2022/03/06 05:59:21;;;;;;;8.05;6.63;;;;;;;;;;4968078;28;20054;-86
2022/03/06 06:01:48;;;;;;;8.38;7.13;;;;;;;;;;4976593;28;20070;-86
2022/03/06 06:04:13;;;;;;;8.07;6.68;;;;;;;;;;4992659;28;20042;-87
2022/03/06 06:06:39;;;;;;;8.02;6.50;;;;;;;;;;4976220;28;20378;-86
2022/03/06 06:09:04;;;;;;;7.88;6.35;;;;;;;;;;4976182;28;20057;-87
2022/03/06 06:11:32;;;;;;;7.57;6.70;;;;;;;;;;4960472;28;20038;-86
2022/03/06 06:13:58;;;;;;;8.00;6.65;;;;;;;;;;4976660;28;20563;-87
2022/03/06 06:16:25;;;;;;;7.68;6.13;;;;;;;;;;4959982;28;20164;-86
2022/03/06 06:18:50;;;;;;;7.97;6.75;;;;;;;;;;4969146;28;20052;-87
2022/03/06 06:21:19;;;;;;;8.15;6.72;;;;;;;;;;4979328;28;20030;-87
2022/03/06 06:23:44;;;;;;;7.25;6.18;;;;;;;;;;5008863;28;20521;-87
2022/03/06 06:26:10;;;;;;;8.13;6.78;;;;;;;;;;4984924;28;20113;-87
2022/03/06 06:28:36;;;;;;;7.85;6.50;;;;;;;;;;4984654;28;20030;-87
2022/03/06 06:31:02;;;;;;;7.88;6.32;;;;;;;;;;4985166;28;20108;-86
2022/03/06 06:33:29;;;;;;;8.23;6.15;;;;;;;;;;4991969;28;20044;-87
2022/03/06 06:35:55;;;;;;;8.65;6.88;;;;;;;;;;5006673;28;20037;-87
2022/03/06 06:38:22;;;;;;;7.80;6.00;;;;;;;;;;5012120;28;20040;-86
2022/03/06 06:40:49;;;;;;;7.45;6.25;;;;;;;;;;4995659;28;20034;-87
2022/03/06 06:43:15;;;;;;;8.95;6.70;;;;;;;;;;5010352;28;20030;-86
2022/03/06 06:45:42;;;;;;;7.45;6.15;;;;;;;;;;4975697;28;20535;-87
2022/03/06 06:48:08;;;;;;;7.80;6.43;;;;;;;;;;4975849;28;20049;-87
2022/03/06 06:50:34;;;;;;;8.07;7.13;;;;;;;;;;4975672;28;20058;-86
2022/03/06 06:53:01;;;;;;;7.78;6.13;;;;;;;;;;4984471;28;20145;-86
2022/03/06 06:55:27;;;;;;;7.20;5.95;;;;;;;;;;4975749;28;20124;-86
2022/03/06 06:57:53;;;;;;;8.93;6.10;;;;;;;;;;5000567;28;20034;-86
2022/03/06 07:00:20;;;;;;;8.00;6.50;;;;;;;;;;4990709;28;20481;-87
2022/03/06 07:02:46;;;;;;;8.35;6.22;;;;;;;;;;4990437;28;20109;-87
2022/03/06 07:05:14;;;;;;;7.68;6.10;;;;;;;;;;4992004;28;20046;-86
2022/03/06 07:07:40;;;;;;;7.90;6.25;;;;;;;;;;4975504;28;20092;-86
2022/03/06 07:10:07;;;;;;;8.13;6.53;;;;;;;;;;4975698;28;20028;-87
2022/03/06 07:12:46;;;;;;;7.05;5.85;;;;;;;;;;4992122;28;20073;-87
2022/03/06 07:15:12;;;;;;;7.30;5.78;;;;;;;;;;4991934;28;20560;-87
2022/03/06 07:17:41;;;;;;;7.22;6.05;;;;;;;;;;4991607;28;20118;-86
2022/03/06 07:20:08;;;;;;;8.02;5.90;;;;;;;;;;4991931;28;20109;-87
2022/03/06 07:22:35;;;;;;;7.60;5.63;;;;;;;;;;4975499;28;20489;-86
2022/03/06 07:25:02;;;;;;;6.60;5.72;;;;;;;;;;4991612;28;20069;-87
2022/03/06 07:27:28;;;;;;;6.57;5.53;;;;;;;;;;4991352;28;20086;-87
2022/03/06 07:29:53;;;;;;;6.88;5.47;;;;;;;;;;4991046;28;20078;-86
2022/03/06 07:32:20;;;;;;;7.18;5.65;;;;;;;;;;4959325;28;20031;-86
2022/03/06 07:34:45;;;;;;;6.07;5.47;;;;;;;;;;4994385;28;20033;-86
2022/03/06 07:37:11;;;;;;;7.22;6.13;;;;;;;;;;4994462;28;20190;-87
2022/03/06 07:39:38;;;;;;;6.38;5.55;;;;;;;;;;4994503;28;20455;-87
2022/03/06 07:42:04;;;;;;;7.13;5.85;;;;;;;;;;4994673;28;20157;-84
2022/03/06 07:44:29;;;;;;;7.15;5.78;;;;;;;;;;5002905;28;20105;-80
2022/03/06 07:46:55;;;;;;;6.32;4.80;;;;;;;;;;4994002;28;20440;-81
2022/03/06 07:49:20;;;;;;;6.85;5.70;;;;;;;;;;4978219;28;20038;-81
2022/03/06 07:51:46;;;;;;;7.18;5.25;;;;;;;;;;5010549;28;20455;-80
2022/03/06 07:54:14;;;;;;;7.68;5.65;;;;;;;;;;5010316;28;20427;-79
2022/03/06 07:56:46;;;;;;;7.40;5.97;;;;;;;;;;4994164;28;20476;-79
2022/03/06 07:59:12;;;;;;;;;;;;;;;;;;4974876;28;20120;-80
2022/03/06 08:01:37;;;;;;;6.90;5.90;;;;;;;;;;4991047;28;19948;-80
2022/03/06 08:04:03;;;;;;;6.07;5.38;;;;;;;;;;4990406;28;20129;-79
2022/03/06 08:06:28;;;;;;;8.48;5.90;;;;;;;;;;4990641;28;20419;-80
2022/03/06 08:08:54;;;;;;;6.40;5.28;;;;;;;;;;4991891;28;20034;-79
2022/03/06 08:11:19;;;;;;;10.95;6.60;;;;;;;;;;4994670;28;20464;-80
2022/03/06 08:13:45;;;;;;;7.68;6.28;;;;;;;;;;4978047;28;20030;-79
2022/03/06 08:16:10;;;;;;;8.73;7.80;;;;;;;;;;4978095;28;20050;-81
2022/03/06 08:18:36;;;;;;;9.10;7.78;;;;;;;;;;4978322;28;20057;-79
2022/03/06 08:21:01;;;;;;;8.50;7.60;;;;;;;;;;4994410;28;20042;-79
2022/03/06 08:23:27;;;;;;;9.95;8.32;;;;;;;;;;4994248;28;20030;-82
2022/03/06 08:25:52;;;;;;;9.32;7.68;;;;;;;;;;4994076;28;20038;-81
2022/03/06 08:28:17;;;;;;;12.00;7.65;;;;;;;;;;4994155;28;20042;-82
2022/03/06 08:30:43;;;;;;;10.95;6.82;;;;;;;;;;4961803;28;20042;-81
2022/03/06 08:33:08;;;;;;;10.73;6.95;;;;;;;;;;4978414;28;20449;-80
2022/03/06 08:35:34;;;;;;;11.93;8.02;;;;;;;;;;4993903;28;20050;-82
2022/03/06 08:37:59;;;;;;;13.75;6.57;;;;;;;;;;4993878;28;20049;-82
2022/03/06 08:40:25;;;;;;;7.97;6.45;;;;;;;;;;4978078;28;20060;-81
2022/03/06 08:42:50;;;;;;;9.10;7.70;;;;;;;;;;4993847;28;20026;-81
2022/03/06 08:45:16;;;;;;;10.65;7.32;;;;;;;;;;4975724;28;20036;-81
2022/03/06 08:47:42;;;;;;;9.88;7.40;;;;;;;;;;4994342;28;20030;-81
2022/03/06 08:50:07;;;;;;;9.27;6.50;;;;;;;;;;4983986;28;20105;-81
2022/03/06 08:52:33;;;;;;;12.70;7.70;;;;;;;;;;5006144;28;20045;-82
2022/03/06 08:54:58;;;;;;;11.65;8.00;;;;;;;;;;4990896;28;20073;-82
2022/03/06 08:57:24;;;;;;;11.35;8.00;;;;;;;;;;4995397;28;20038;-81
2022/03/06 08:59:50;;;;;;;8.95;6.68;;;;;;;;;;4995864;28;20037;-81
2022/03/06 09:02:15;;;;;;;11.88;7.03;;;;;;;;;;4993501;28;20060;-82
2022/03/06 09:04:41;;;;;;;10.88;7.53;;;;;;;;;;4990742;28;20049;-82
2022/03/06 09:07:06;;;;;;;12.45;7.32;;;;;;;;;;5010807;28;20137;-81
2022/03/06 09:09:33;;;;;;;11.65;7.63;;;;;;;;;;5012202;28;20450;-82
2022/03/06 09:11:58;;;;;;;14.55;8.35;;;;;;;;;;5018002;28;20048;-81
2022/03/06 09:14:24;;;;;;;11.73;7.30;;;;;;;;;;4990971;28;20496;-82
2022/03/06 09:16:49;;;;;;;13.18;7.97;;;;;;;;;;4987393;28;20045;-82
2022/03/06 09:19:15;;;;;;;12.23;7.93;;;;;;;;;;5005427;28;20057;-82
2022/03/06 09:21:43;;;;;;;9.38;6.43;;;;;;;;;;4993921;28;20444;-81
2022/03/06 09:24:08;;;;;;;11.15;6.72;;;;;;;;;;4974690;28;20575;-83
2022/03/06 09:26:34;;;;;;;15.05;8.20;;;;;;;;;;5002724;28;20133;-82
2022/03/06 09:28:59;;;;;;;10.45;7.40;;;;;;;;;;5001654;28;20045;-82
2022/03/06 09:31:25;;;;;;;9.23;6.57;;;;;;;;;;4996336;28;20099;-82
2022/03/06 09:33:51;;;;;;;10.27;7.47;;;;;;;;;;4993800;28;20041;-81
2022/03/06 09:36:16;;;;;;;8.95;6.30;;;;;;;;;;4990371;28;20488;-82
2022/03/06 09:38:42;;;;;;;10.95;6.80;;;;;;;;;;4979856;28;20045;-82
2022/03/06 09:41:08;;;;;;;9.73;6.68;;;;;;;;;;4992418;28;20038;-82
2022/03/06 09:43:34;;;;;;;9.90;6.43;;;;;;;;;;4982652;28;20072;-82
2022/03/06 09:46:05;;;;;;;11.45;6.57;;;;;;;;;;4996086;28;20117;-82
2022/03/06 09:48:30;;;;;;;9.85;6.63;;;;;;;;;;4981048;28;20030;-82
2022/03/06 09:50:56;;;;;;;11.15;6.15;;;;;;;;;;4995516;28;20044;-82
2022/03/06 09:53:22;;;;;;;12.02;6.18;;;;;;;;;;4997665;28;20478;-82
2022/03/06 09:55:47;;;;;;;9.40;6.05;;;;;;;;;;4959767;28;20042;-82
2022/03/06 09:58:14;;;;;;;8.27;5.75;;;;;;;;;;4976952;28;20042;-83
2022/03/06 10:00:40;;;;;;;9.85;5.82;;;;;;;;;;4996018;28;20032;-82
2022/03/06 10:03:05;;;;;;;7.85;5.63;;;;;;;;;;4995801;28;20029;-82
2022/03/06 10:05:36;;;;;;;7.30;5.38;;;;;;;;;;5011582;28;20045;-82
2022/03/06 10:08:15;;;;;;;7.68;5.05;;;;;;;;;;4994546;28;20141;-82
2022/03/06 10:10:40;;;;;;;7.25;4.88;;;;;;;;;;5011437;28;20066;-82
2022/03/06 10:13:26;;;;;;;6.38;4.88;;;;;;;;;;4995380;28;20046;-82
2022/03/06 10:15:59;;;;;;;8.88;5.20;;;;;;;;;;4995105;28;20030;-82
2022/03/06 10:18:24;;;;;;;8.63;5.90;;;;;;;;;;4995524;28;20488;-82
2022/03/06 10:20:50;;;;;;;7.20;5.03;;;;;;;;;;4995230;28;20034;-82
2022/03/06 10:23:25;;;;;;;7.18;4.85;;;;;;;;;;4994573;28;20107;-82
2022/03/06 10:26:11;;;;;;;7.30;4.78;;;;;;;;;;4978436;28;20066;-82
2022/03/06 10:28:48;;;;;;;6.18;4.93;;;;;;;;;;4995199;28;20038;-82
2022/03/06 10:31:14;;;;;;;6.63;4.88;;;;;;;;;;4978985;28;20460;-82
2022/03/06 10:33:39;;;;;;;6.90;5.10;;;;;;;;;;4995246;28;20038;-82
2022/03/06 10:36:08;;;;;;;7.38;5.45;;;;;;;;;;4995170;28;20412;-82
2022/03/06 10:38:35;;;;;;;6.65;5.30;;;;;;;;;;4994807;28;20508;-83
2022/03/06 10:41:11;;;;;;;7.40;4.93;;;;;;;;;;4995468;28;20030;-82
2022/03/06 10:43:37;;;;;;;5.57;4.57;;;;;;;;;;4996460;28;20030;-79
2022/03/06 10:46:22;;;;;;;5.40;4.15;;;;;;;;;;5010990;28;20773;-80
2022/03/06 10:48:58;;;;;;;5.85;4.43;;;;;;;;;;5011563;28;20460;-79
2022/03/06 10:51:23;;;;;;;5.32;4.25;;;;;;;;;;4995109;28;20068;-79
2022/03/06 10:53:52;;;;;;;6.30;4.60;;;;;;;;;;5010844;28;20038;-80
2022/03/06 10:56:18;;;;;;;6.68;4.00;;;;;;;;;;5011386;28;20037;-80
2022/03/06 10:58:44;;;;;;;4.95;4.00;;;;;;;;;;5011318;28;20076;-80
2022/03/06 11:01:10;;;;;;;6.05;4.18;;;;;;;;;;4995099;28;20041;-80
2022/03/06 11:03:36;;;;;;;8.10;4.47;;;;;;;;;;4994805;28;20108;-80
2022/03/06 11:06:09;;;;;;;7.25;4.10;;;;;;;;;;5010936;28;20041;-80
2022/03/06 11:08:34;;;;;;;6.43;4.03;;;;;;;;;;4994466;28;20129;-80
2022/03/06 11:11:00;;;;;;;8.32;4.45;;;;;;;;;;4993893;28;20042;-79
2022/03/06 11:13:29;;;;;;;7.15;4.35;;;;;;;;;;4994843;28;20116;-79
2022/03/06 11:15:54;;;;;;;6.22;4.20;;;;;;;;;;4994445;28;20038;-80
2022/03/06 11:18:20;;;;;;;6.85;4.57;;;;;;;;;;4991720;28;20030;-79
2022/03/06 11:20:45;;;;;;;9.90;4.97;;;;;;;;;;4991151;28;20117;-80
2022/03/06 11:23:37;;;;;;;7.50;5.47;;;;;;;;;;4990715;28;20409;-80
2022/03/06 11:26:17;;;;;;;8.60;6.70;;;;;;;;;;4991383;28;20517;-81
2022/03/06 11:29:14;;;;;;;5.70;4.90;;;;;;;;;;5007536;28;20125;-81
2022/03/06 11:31:46;;;;;;;7.05;5.07;;;;;;;;;;5007308;28;20036;-80
2022/03/06 11:34:12;;;;;;;8.65;6.03;;;;;;;;;;4993723;28;20033;-80
2022/03/06 11:36:45;;;;;;;7.85;5.55;;;;;;;;;;4993769;28;20172;-80
2022/03/06 11:39:13;;;;;;;6.10;5.00;;;;;;;;;;4994162;28;20504;-81
2022/03/06 11:41:39;;;;;;;8.90;7.53;;;;;;;;;;4978719;28;20084;-80
2022/03/06 11:44:04;;;;;;;12.43;8.90;;;;;;;;;;5000760;28;20408;-79
2022/03/06 11:46:30;;;;;;;7.97;6.35;;;;;;;;;;5014379;28;20073;-79
2022/03/06 11:48:55;;;;;;;9.65;7.05;;;;;;;;;;5015145;28;20443;-79
2022/03/06 11:51:23;;;;;;;12.05;8.93;;;;;;;;;;5014421;28;20034;-79
2022/03/06 11:53:56;;;;;;;12.43;10.82;;;;;;;;;;5031032;28;20516;-79
2022/03/06 11:56:37;;;;;;;;;;;;;;;;;;5015111;28;20073;-79
2022/03/06 11:59:09;;;;;;;11.85;8.50;;;;;;;;;;5015553;28;19925;-79
2022/03/06 12:01:39;;;;;;;9.77;7.95;;;;;;;;;;4998174;28;20061;-79
2022/03/06 12:04:09;;;;;;;9.88;7.63;;;;;;;;;;4992563;28;20146;-79
2022/03/06 12:06:55;;;;;;;9.43;7.22;;;;;;;;;;4978337;28;20038;-79
2022/03/06 12:09:25;;;;;;;8.75;6.82;;;;;;;;;;4978451;28;20109;-79
2022/03/06 12:11:52;;;;;;;7.80;7.00;;;;;;;;;;4984126;28;20036;-79
2022/03/06 12:14:20;;;;;;;9.57;6.43;;;;;;;;;;4978826;28;20038;-79
2022/03/06 12:17:01;;;;;;;13.80;7.32;;;;;;;;;;4994462;28;20068;-79
2022/03/06 12:19:45;;;;;;;15.05;6.65;;;;;;;;;;5008227;28;20044;-80
2022/03/06 12:22:11;;;;;;;14.68;7.22;;;;;;;;;;5014915;28;20535;-81
2022/03/06 12:24:37;;;;;;;7.63;5.55;;;;;;;;;;4997766;28;20403;-79
2022/03/06 12:27:21;;;;;;;6.32;5.07;;;;;;;;;;4997421;28;20033;-79
2022/03/06 12:29:46;;;;;;;7.95;5.63;;;;;;;;;;5013912;28;20046;-80
2022/03/06 12:32:33;;;;;;;6.55;4.60;;;;;;;;;;5013224;28;20030;-79
2022/03/06 12:35:02;;;;;;;9.35;5.18;;;;;;;;;;5013052;28;20052;-80
2022/03/06 12:37:32;;;;;;;10.13;4.38;;;;;;;;;;4980876;28;20084;-79
2022/03/06 12:39:57;;;;;;;6.10;4.05;;;;;;;;;;5013602;28;20034;-80
2022/03/06 12:42:24;;;;;;;5.45;3.88;;;;;;;;;;4981086;28;20107;-79
2022/03/06 12:44:52;;;;;;;7.80;4.00;;;;;;;;;;5008432;28;20030;-79
2022/03/06 12:47:18;;;;;;;11.40;4.85;;;;;;;;;;5013495;28;20041;-81
2022/03/06 12:49:49;;;;;;;8.88;4.05;;;;;;;;;;5013268;28;20046;-80
2022/03/06 12:52:17;;;;;;;7.97;4.47;;;;;;;;;;4981150;28;20464;-80
2022/03/06 12:54:42;;;;;;;6.82;4.55;;;;;;;;;;4997029;28;20049;-80
2022/03/06 12:57:08;;;;;;;8.85;4.10;;;;;;;;;;4997018;28;20025;-80
2022/03/06 12:59:36;;;;;;;9.65;4.95;;;;;;;;;;4993690;28;20048;-80
2022/03/06 13:02:02;;;;;;;10.75;4.80;;;;;;;;;;4994040;28;20045;-79
2022/03/06 13:04:29;;;;;;;10.48;4.47;;;;;;;;;;4993900;28;20497;-79
2022/03/06 13:06:56;;;;;;;7.68;4.32;;;;;;;;;;4977889;28;20039;-80
2022/03/06 13:09:23;;;;;;;12.73;5.18;;;;;;;;;;4994049;28;20448;-80
2022/03/06 13:11:49;;;;;;;10.02;5.03;;;;;;;;;;4977977;28;20037;-78
2022/03/06 13:14:15;;;;;;;9.73;4.35;;;;;;;;;;4977515;28;20042;-79
2022/03/06 13:16:41;;;;;;;9.30;4.00;;;;;;;;;;4977405;28;20118;-78
2022/03/06 13:19:06;;;;;;;8.38;4.32;;;;;;;;;;4987976;28;20069;-78
2022/03/06 13:21:33;;;;;;;8.57;4.43;;;;;;;;;;4996508;28;20416;-78
2022/03/06 13:24:01;;;;;;;8.70;4.88;;;;;;;;;;4996503;28;20045;-79
2022/03/06 13:26:30;;;;;;;8.38;4.25;;;;;;;;;;4979773;28;20033;-79
2022/03/06 13:28:55;;;;;;;10.15;4.05;;;;;;;;;;4993370;28;20046;-79
2022/03/06 13:31:21;;;;;;;13.18;4.82;;;;;;;;;;4994095;28;20034;-79
2022/03/06 13:34:07;;;;;;;8.57;5.15;;;;;;;;;;4994591;28;20030;-79
2022/03/06 13:36:34;;;;;;;6.93;4.00;;;;;;;;;;5011969;28;20046;-82
2022/03/06 13:39:01;;;;;;;7.90;3.75;;;;;;;;;;4996363;28;20038;-82
2022/03/06 13:41:26;;;;;;;6.63;4.40;;;;;;;;;;4980274;28;20464;-82
2022/03/06 13:43:52;;;;;;;6.22;4.13;;;;;;;;;;4999286;28;20069;-82
2022/03/06 13:46:20;;;;;;;6.97;3.75;;;;;;;;;;5012292;28;20033;-83
2022/03/06 13:48:47;;;;;;;9.10;4.32;;;;;;;;;;4980531;28;20518;-84
2022/03/06 13:51:20;;;;;;;7.53;4.28;;;;;;;;;;5012508;28;20044;-83
2022/03/06 13:53:56;;;;;;;8.73;4.20;;;;;;;;;;4980284;28;20038;-84
2022/03/06 13:56:29;;;;;;;8.55;4.15;;;;;;;;;;4994040;28;20452;-86
2022/03/06 13:58:54;;;;;;;6.63;4.20;;;;;;;;;;4969562;28;20040;-84
2022/03/06 14:01:21;;;;;;;10.02;4.25;;;;;;;;;;4987707;28;20026;-82
2022/03/06 14:03:47;;;;;;;7.95;3.50;;;;;;;;;;4984244;28;20026;-84
2022/03/06 14:06:15;;;;;;;8.82;3.60;;;;;;;;;;4999967;28;20083;-85
2022/03/06 14:08:45;;;;;;;6.65;3.97;;;;;;;;;;4990111;28;20041;-84
2022/03/06 14:11:23;;;;;;;5.75;4.22;;;;;;;;;;4986843;28;20037;-87
2022/03/06 14:13:57;;;;;;;7.07;3.67;;;;;;;;;;4996495;28;20043;-84
2022/03/06 14:16:23;;;;;;;9.20;4.35;;;;;;;;;;4960229;28;20129;-83
2022/03/06 14:18:52;;;;;;;5.97;4.45;;;;;;;;;;4985081;28;20038;-84
2022/03/06 14:21:19;;;;;;;7.78;4.18;;;;;;;;;;5028029;28;20030;-84
2022/03/06 14:23:49;;;;;;;6.10;3.90;;;;;;;;;;4994995;28;20475;-84
2022/03/06 14:26:30;;;;;;;6.70;4.22;;;;;;;;;;5011861;28;20046;-84
2022/03/06 14:28:55;;;;;;;5.25;4.05;;;;;;;;;;4981083;28;20046;-84
2022/03/06 14:31:21;;;;;;;5.95;4.05;;;;;;;;;;5028159;28;20041;-84
2022/03/06 14:33:47;;;;;;;5.75;3.90;;;;;;;;;;4979350;28;20030;-84
2022/03/06 14:36:13;;;;;;;6.53;3.75;;;;;;;;;;4975335;28;20041;-84
2022/03/06 14:38:38;;;;;;;6.20;4.00;;;;;;;;;;4959945;28;20038;-84
2022/03/06 14:41:04;;;;;;;4.90;3.60;;;;;;;;;;4992216;28;20049;-83
2022/03/06 14:43:32;;;;;;;6.43;3.75;;;;;;;;;;4978769;28;20037;-84
2022/03/06 14:45:58;;;;;;;6.05;4.07;;;;;;;;;;5010808;28;20496;-84